Time;durP1;ratioP1;P1;durP2;ratioP2;P2;SDS_P1;SDS_P2;PMS_P1;PMS_P2;Temp;Humidity;BMP_temperature;BMP_pressure;BME280_temperature;BME280_humidity;BME280_pressure;Samples;Min_cycle;Max_cycle;Signal;HPM_P1;HPM_P2
2022/03/06 00:00:49;;;;;;;2.00;1.60;;;-3.80;1.40;;;-3.26;100.00;95454.77;650866;212;31804;-76
2022/03/06 00:03:35;;;;;;;4.93;2.00;;;-3.90;1.40;;;-3.30;100.00;95449.38;617028;224;32026;-76
2022/03/06 00:06:17;;;;;;;2.50;1.95;;;-3.80;1.40;;;-3.35;100.00;95448.95;623445;222;32043;-76
2022/03/06 00:09:00;;;;;;;2.58;2.35;;;-3.90;1.40;;;-3.48;100.00;95452.30;647944;212;31646;-76
2022/03/06 00:11:41;;;;;;;2.60;1.50;;;-4.00;1.40;;;-3.49;100.00;95459.31;644089;212;31808;-77
2022/03/06 00:14:27;;;;;;;3.15;2.30;;;-3.90;1.40;;;-3.52;100.00;95455.52;621191;226;43100;-77
2022/03/06 00:17:09;;;;;;;2.78;1.33;;;-4.00;1.40;;;-3.53;100.00;95459.10;627992;222;31918;-76
2022/03/06 00:20:01;;;;;;;4.87;2.55;;;-4.10;1.40;;;-3.54;100.00;95460.41;650195;216;31674;-76
2022/03/06 00:22:48;;;;;;;6.85;2.28;;;-4.10;1.40;;;-3.59;100.00;95462.47;645581;216;32397;-76
2022/03/06 00:25:30;;;;;;;2.08;1.98;;;-4.10;1.40;;;-3.48;100.00;95463.95;619188;222;31921;-76
2022/03/06 00:28:13;;;;;;;2.47;2.28;;;-4.10;1.40;;;-3.51;100.00;95465.46;650807;212;31509;-76
2022/03/06 00:30:58;;;;;;;3.87;1.77;;;-4.10;1.40;;;-3.52;100.00;95469.98;647902;212;42250;-76
2022/03/06 00:35:51;;;;;;;5.07;2.30;;;-4.20;1.40;;;-3.58;100.00;95465.25;645489;212;42197;-76
2022/03/06 00:38:33;;;;;;;3.50;1.83;;;-4.20;1.40;;;-3.68;100.00;95464.08;649205;212;31959;-75
2022/03/06 00:41:20;;;;;;;1.95;1.35;;;-4.20;1.40;;;-3.64;100.00;95463.84;672627;210;31232;-76
2022/03/06 00:44:49;;;;;;;4.50;2.05;;;-4.20;1.40;;;-3.56;100.00;95461.29;629373;222;31877;-76
2022/03/06 00:47:34;;;;;;;4.75;2.00;;;-4.20;1.40;;;-3.60;100.00;95466.95;638498;217;31753;-75
2022/03/06 00:50:17;;;;;;;5.22;1.87;;;-4.20;1.40;;;-3.53;100.00;95465.08;618330;222;32190;-76
2022/03/06 00:53:00;;;;;;;3.05;1.67;;;-4.10;1.40;;;-3.45;100.00;95464.10;650045;212;42199;-77
2022/03/06 00:55:48;;;;;;;2.70;1.40;;;-4.10;1.40;;;-3.52;100.00;95455.36;623271;222;32053;-76
2022/03/06 00:58:33;;;;;;;2.00;1.80;;;-4.20;1.40;;;-3.57;100.00;95453.99;649868;212;32385;-76
2022/03/06 01:01:15;;;;;;;2.40;2.30;;;-4.20;1.40;;;-3.61;100.00;95456.03;655216;212;31524;-76
2022/03/06 01:03:57;;;;;;;4.28;1.70;;;-4.20;1.40;;;-3.61;100.00;95454.41;644993;212;31826;-76
2022/03/06 01:06:42;;;;;;;11.95;1.70;;;-4.20;1.40;;;-3.49;100.00;95457.03;664255;209;31430;-76
2022/03/06 01:09:23;;;;;;;2.12;1.55;;;-4.20;1.40;;;-3.54;100.00;95456.53;650482;212;42188;-76
2022/03/06 01:12:06;;;;;;;5.15;3.05;;;-4.30;1.40;;;-3.70;100.00;95453.31;623318;222;32011;-76
2022/03/06 01:14:49;;;;;;;6.05;1.77;;;-4.30;1.40;;;-3.72;100.00;95455.88;646321;212;31511;-76
2022/03/06 01:17:30;;;;;;;3.22;2.00;;;-4.30;1.40;;;-3.72;100.00;95460.53;650537;212;42775;-76
2022/03/06 01:20:17;;;;;;;2.00;1.80;;;-4.30;1.40;;;-3.61;100.00;95456.25;644844;216;42491;-74
2022/03/06 01:23:00;;;;;;;2.53;1.85;;;-4.30;1.40;;;-3.67;100.00;95460.03;630057;217;31664;-77
2022/03/06 01:25:42;;;;;;;2.80;1.50;;;-4.30;1.40;;;-3.74;100.00;95460.89;619028;222;31855;-75
2022/03/06 01:28:25;;;;;;;2.40;2.20;;;-4.50;1.40;;;-3.72;100.00;95459.47;649780;212;31811;-76
2022/03/06 01:31:09;;;;;;;1.80;1.70;;;-4.50;1.40;;;-3.75;100.00;95457.59;645793;216;42052;-74
2022/03/06 01:35:51;;;;;;;9.13;2.23;;;-4.50;1.40;;;-4.00;100.00;95457.42;654530;212;24477;-76
2022/03/06 01:38:33;;;;;;;3.60;2.47;;;-4.50;1.40;;;-3.97;100.00;95459.91;644619;215;31593;-76
2022/03/06 01:41:14;;;;;;;2.10;1.40;;;-4.70;1.40;;;-4.00;100.00;95462.07;644882;214;31565;-77
2022/03/06 01:44:00;;;;;;;1.40;1.02;;;-4.70;1.40;;;-4.09;100.00;95461.25;651516;212;31497;-76
2022/03/06 01:46:42;;;;;;;2.50;2.35;;;-4.70;1.40;;;-4.02;100.00;95458.97;617232;222;32059;-76
2022/03/06 01:49:24;;;;;;;2.35;2.17;;;-4.70;1.40;;;-4.07;100.00;95458.70;647526;212;31717;-75
2022/03/06 01:52:07;;;;;;;1.52;1.02;;;-4.70;1.40;;;-4.07;100.00;95465.69;651465;216;31543;-76
2022/03/06 01:54:48;;;;;;;3.10;1.30;;;-4.60;1.40;;;-4.16;100.00;95463.21;646010;216;32200;-76
2022/03/06 01:57:30;;;;;;;1.85;1.75;;;-4.70;1.40;;;-4.06;100.00;95463.83;617474;222;31872;-76
2022/03/06 02:00:13;;;;;;;1.83;1.73;;;-4.70;1.40;;;-4.00;100.00;95466.05;649559;212;31746;-76
2022/03/06 02:02:55;;;;;;;0.82;0.70;;;-4.70;1.40;;;-3.92;100.00;95467.31;619042;222;31873;-76
2022/03/06 02:05:38;;;;;;;4.93;2.10;;;-4.60;1.40;;;-3.92;100.00;95465.19;646876;216;31564;-76
2022/03/06 02:08:26;;;;;;;3.00;1.40;;;-4.60;1.40;;;-4.09;100.00;95465.00;643825;212;42078;-74
2022/03/06 02:11:08;;;;;;;2.60;1.10;;;-4.80;1.40;;;-4.15;100.00;95469.94;644058;216;31733;-76
2022/03/06 02:13:50;;;;;;;4.62;2.45;;;-4.90;1.40;;;-4.27;100.00;95460.41;651736;212;31565;-76
2022/03/06 02:16:35;;;;;;;4.00;2.40;;;-4.90;1.40;;;-4.10;100.00;95462.91;650171;212;31571;-76
2022/03/06 02:19:18;;;;;;;1.50;1.30;;;-4.80;1.40;;;-4.15;100.00;95458.19;648087;216;31552;-76
2022/03/06 02:22:02;;;;;;;4.30;2.60;;;-4.80;1.40;;;-4.20;100.00;95460.73;651471;212;31560;-76
2022/03/06 02:24:45;;;;;;;3.12;1.40;;;-4.80;1.40;;;-4.24;100.00;95459.94;649461;212;31561;-75
2022/03/06 02:27:27;;;;;;;3.50;1.90;;;-4.70;1.40;;;-4.22;100.00;95458.59;618235;222;31888;-76
2022/03/06 02:30:13;;;;;;;2.53;1.33;;;-4.80;1.40;;;-4.22;100.00;95454.62;646879;216;31995;-75
2022/03/06 02:32:57;;;;;;;2.58;1.30;;;-4.80;1.40;;;-4.22;100.00;95460.81;650113;212;31585;-76
2022/03/06 02:35:53;;;;;;;4.00;2.10;;;-4.90;1.40;;;-4.24;100.00;95455.46;650553;216;31588;-76
2022/03/06 02:38:35;;;;;;;2.70;0.85;;;-4.90;1.40;;;-4.14;100.00;95450.72;646314;216;31584;-76
2022/03/06 02:41:18;;;;;;;3.30;1.37;;;-4.80;1.40;;;-4.02;100.00;95453.09;647805;212;31568;-76
2022/03/06 02:43:59;;;;;;;3.25;1.70;;;-4.70;1.40;;;-4.21;100.00;95455.72;648101;212;31587;-76
2022/03/06 02:49:18;;;;;;;2.30;0.90;;;-5.00;1.40;;;-4.42;100.00;95455.33;621339;226;32263;-76
2022/03/06 02:52:05;;;;;;;4.45;1.45;;;-5.10;1.40;;;-4.52;100.00;95458.95;619875;226;31924;-77
2022/03/06 02:54:49;;;;;;;1.40;1.10;;;-5.10;1.40;;;-4.52;100.00;95457.08;647246;216;31533;-76
2022/03/06 02:57:38;;;;;;;3.45;1.25;;;-5.10;1.40;;;-4.49;100.00;95455.92;646692;212;42123;-75
2022/03/06 03:10:50;;;;;;;2.17;1.45;;;-5.20;1.40;;;-4.67;100.00;95465.11;651615;212;31469;-74
2022/03/06 03:13:32;;;;;;;3.40;1.00;;;-5.20;1.40;;;-4.79;100.00;95466.19;650630;212;31566;-74
2022/03/06 03:18:48;;;;;;;3.35;1.12;;;-5.20;1.40;;;-4.54;100.00;95467.79;650724;216;31552;-76
2022/03/06 03:21:37;;;;;;;3.10;1.48;;;-5.10;1.40;;;-4.58;100.00;95461.53;651382;212;31548;-77
2022/03/06 03:24:25;;;;;;;4.47;1.95;;;-5.10;1.40;;;-4.67;100.00;95463.91;646484;216;31596;-74
2022/03/06 03:27:09;;;;;;;2.60;1.73;;;-5.10;1.40;;;-4.69;100.00;95462.23;644882;216;32220;-75
2022/03/06 03:29:51;;;;;;;3.22;0.70;;;-5.00;1.40;;;-4.66;100.00;95462.78;647478;212;32176;-75
2022/03/06 03:35:51;;;;;;;2.40;1.00;;;-4.90;1.40;;;-4.48;100.00;95461.98;654405;212;31563;-76
2022/03/06 03:38:41;;;;;;;4.80;1.58;;;-4.80;1.40;;;-4.40;100.00;95465.13;649494;213;42086;-76
2022/03/06 03:41:34;;;;;;;5.12;1.52;;;-4.70;1.40;;;-4.37;100.00;95475.05;646617;216;31584;-76
2022/03/06 03:44:25;;;;;;;3.62;2.08;;;-4.70;1.40;;;-4.34;100.00;95472.64;644126;216;31786;-76
2022/03/06 03:47:18;;;;;;;2.10;1.27;;;-4.70;1.40;;;-4.25;100.00;95481.82;646719;212;31645;-74
2022/03/06 03:50:02;;;;;;;3.70;1.90;;;-4.70;1.40;;;-4.15;100.00;95494.14;619838;222;31921;-76
2022/03/06 03:52:45;;;;;;;2.40;0.95;;;-4.70;1.40;;;-4.10;100.00;95487.49;620527;222;32057;-76
2022/03/06 03:55:44;;;;;;;2.70;1.20;;;-4.60;1.40;;;-4.12;100.00;95495.04;649190;212;32038;-76
2022/03/06 04:08:59;;;;;;;2.60;1.23;;;-4.60;1.40;;;-4.06;100.00;95501.38;644997;216;31568;-76
2022/03/06 04:11:44;;;;;;;2.70;1.90;;;-4.60;1.40;;;-4.01;100.00;95497.50;647247;216;31582;-76
2022/03/06 04:14:27;;;;;;;1.80;1.10;;;-4.60;1.40;;;-3.94;100.00;95498.08;619402;226;32829;-76
2022/03/06 04:19:47;;;;;;;1.40;1.00;;;-4.40;1.40;;;-3.75;100.00;95507.77;620837;226;32866;-76
2022/03/06 04:22:31;;;;;;;3.70;1.40;;;-4.50;1.40;;;-3.67;100.00;95501.83;645586;212;31788;-76
2022/03/06 04:25:12;;;;;;;3.25;1.20;;;-4.50;1.40;;;-3.61;100.00;95505.27;621505;226;31908;-77
2022/03/06 04:28:01;;;;;;;5.00;1.50;;;-4.50;1.40;;;-3.67;100.00;95506.11;645115;212;31548;-76
2022/03/06 04:30:54;;;;;;;3.75;1.70;;;-4.50;1.40;;;-3.80;100.00;95511.81;641338;220;42205;-75
2022/03/06 04:35:52;;;;;;;2.15;2.00;;;-4.60;1.40;;;-4.12;100.00;95506.73;616762;226;32215;-76
2022/03/06 04:38:40;;;;;;;3.23;3.03;;;-4.70;1.40;;;-4.19;100.00;95510.83;654307;212;23407;-76
2022/03/06 04:41:24;;;;;;;1.60;1.30;;;-4.60;1.40;;;-4.23;100.00;95506.35;648957;216;39821;-75
2022/03/06 04:44:09;;;;;;;5.30;1.67;;;-4.70;1.40;;;-4.20;100.00;95511.28;647186;216;42214;-77
2022/03/06 04:46:51;;;;;;;2.50;1.70;;;-4.70;1.40;;;-4.30;100.00;95508.24;648327;216;42163;-76
2022/03/06 04:49:37;;;;;;;4.60;2.33;;;-4.80;1.40;;;-4.29;100.00;95508.93;652950;216;42133;-77
2022/03/06 04:52:28;;;;;;;3.62;1.58;;;-4.80;1.40;;;-4.25;100.00;95510.34;643874;216;31604;-76
2022/03/06 04:55:16;;;;;;;1.55;1.45;;;-4.80;1.40;;;-4.10;100.00;95507.66;626434;226;42578;-77
2022/03/06 04:57:58;;;;;;;2.00;1.20;;;-4.80;1.40;;;-4.07;100.00;95506.02;628004;226;31868;-77
2022/03/06 05:00:43;;;;;;;2.40;1.60;;;-4.70;1.40;;;-3.99;100.00;95510.28;649243;216;31528;-77
2022/03/06 05:03:37;;;;;;;3.53;1.35;;;-4.80;1.40;;;-4.20;100.00;95508.94;633690;219;31995;-75
2022/03/06 05:06:19;;;;;;;1.40;1.30;;;-4.90;1.40;;;-4.39;100.00;95513.31;643964;212;31748;-77
2022/03/06 05:09:01;;;;;;;4.80;2.12;;;-4.90;1.40;;;-4.44;100.00;95512.39;649933;212;32083;-77
2022/03/06 05:11:45;;;;;;;5.35;2.72;;;-4.90;1.40;;;-4.40;100.00;95508.42;648742;216;32225;-77
2022/03/06 05:14:26;;;;;;;1.92;1.20;;;-4.90;1.40;;;-4.43;100.00;95502.66;646114;212;42767;-77
2022/03/06 05:17:11;;;;;;;4.82;2.33;;;-4.90;1.40;;;-4.43;100.00;95508.38;648135;216;31765;-77
2022/03/06 05:19:59;;;;;;;2.10;1.40;;;-4.90;1.40;;;-4.41;100.00;95509.86;650402;216;31612;-77
2022/03/06 05:22:47;;;;;;;1.80;1.30;;;-4.90;1.40;;;-4.44;100.00;95514.61;619381;226;32432;-77
2022/03/06 05:25:29;;;;;;;3.40;1.75;;;-5.00;1.40;;;-4.48;100.00;95513.11;622944;222;42524;-77
2022/03/06 05:28:16;;;;;;;7.70;2.10;;;-4.90;1.40;;;-4.56;100.00;95507.92;646605;212;31658;-76
2022/03/06 05:30:58;;;;;;;2.60;2.15;;;-5.00;1.40;;;-4.52;100.00;95515.09;619919;222;43163;-73
2022/03/06 05:35:57;;;;;;;2.17;1.98;;;-4.90;1.40;;;-4.50;100.00;95514.33;649290;212;31744;-77
2022/03/06 05:38:41;;;;;;;2.20;2.10;;;-4.90;1.40;;;-4.42;100.00;95519.84;657156;216;23452;-76
2022/03/06 05:41:25;;;;;;;5.22;2.45;;;-4.90;1.40;;;-4.38;100.00;95521.28;627415;220;41959;-76
2022/03/06 05:44:10;;;;;;;2.12;1.20;;;-4.90;1.40;;;-4.40;100.00;95523.19;647608;216;31555;-77
2022/03/06 05:46:58;;;;;;;0.95;0.73;;;-4.90;1.40;;;-4.51;100.00;95522.87;647080;216;31582;-74
2022/03/06 05:49:40;;;;;;;3.30;1.70;;;-5.00;1.40;;;-4.50;100.00;95531.81;633229;217;31708;-76
2022/03/06 05:52:24;;;;;;;2.75;1.35;;;-5.10;1.40;;;-4.47;100.00;95534.22;652532;212;31549;-76
2022/03/06 05:55:06;;;;;;;2.90;1.17;;;-5.00;1.40;;;-4.47;100.00;95538.30;626569;222;31871;-77
2022/03/06 05:57:49;;;;;;;4.00;1.90;;;-5.00;1.40;;;-4.52;100.00;95536.91;647215;216;31555;-76
2022/03/06 06:00:33;;;;;;;2.05;1.35;;;-5.00;1.40;;;-4.40;100.00;95540.48;647318;212;31505;-75
2022/03/06 06:03:21;;;;;;;2.10;1.30;;;-5.00;1.40;;;-4.23;100.00;95539.63;645942;216;31624;-75
2022/03/06 06:06:09;;;;;;;2.10;1.40;;;-4.90;1.40;;;-4.16;100.00;95541.46;644562;212;42383;-76
2022/03/06 06:08:57;;;;;;;10.43;2.05;;;-4.80;1.40;;;-4.25;100.00;95542.91;649243;216;31915;-73
2022/03/06 06:11:38;;;;;;;3.35;1.65;;;-4.90;1.40;;;-4.21;100.00;95545.65;653238;216;31899;-74
2022/03/06 06:25:04;;;;;;;6.10;1.70;;;-4.90;1.40;;;-4.38;100.00;95536.54;620302;222;31879;-77
2022/03/06 06:27:55;;;;;;;3.92;2.20;;;-4.80;1.40;;;-4.13;100.00;95532.42;644639;216;31741;-77
2022/03/06 06:30:43;;;;;;;3.00;1.25;;;-4.70;1.40;;;-3.83;100.00;95525.06;622185;222;42564;-75
2022/03/06 06:35:53;;;;;;;3.08;1.83;;;-4.40;1.40;;;-3.49;100.00;95529.06;645444;216;31569;-73
2022/03/06 06:49:17;;;;;;;12.30;2.45;;;-3.50;1.40;;;-2.60;100.00;95529.25;629636;221;31676;-75
2022/03/06 06:51:59;;;;;;;2.80;1.40;;;-3.40;1.40;;;-2.45;100.00;95531.41;645257;212;31557;-75
2022/03/06 06:54:52;;;;;;;2.92;1.73;;;-3.30;1.40;;;-2.30;100.00;95534.66;656418;212;31606;-77
2022/03/06 06:57:40;;;;;;;5.95;3.30;;;-3.20;1.40;;;-2.07;100.00;95532.52;645987;216;31582;-76
2022/03/06 07:00:22;;;;;;;7.95;3.33;;;-3.00;1.40;;;-1.90;100.00;95535.52;649201;216;42213;-74
2022/03/06 07:03:04;;;;;;;3.67;1.50;;;-2.90;1.40;;;-1.73;100.00;95536.16;646540;212;32154;-74
2022/03/06 07:16:24;;;;;;;2.20;1.60;;;-2.60;1.40;;;-1.39;100.00;95564.22;646996;216;31531;-74
2022/03/06 07:19:07;;;;;;;5.18;3.45;;;-2.50;1.40;;;-1.47;100.00;95569.20;647686;216;42263;-76
2022/03/06 07:21:55;;;;;;;1.80;1.70;;;-2.50;1.40;;;-1.45;100.00;95565.81;622026;222;32600;-74
2022/03/06 07:24:39;;;;;;;7.82;4.07;;;-2.50;1.40;;;-1.32;100.00;95565.03;647501;216;31456;-77
2022/03/06 07:27:20;;;;;;;3.70;2.33;;;-2.50;1.40;;;-1.33;100.00;95566.92;620823;226;32075;-77
2022/03/06 07:30:03;;;;;;;5.40;4.07;;;-2.40;1.40;;;-1.27;100.00;95559.07;649024;212;31558;-77
2022/03/06 07:32:45;;;;;;;3.30;1.90;;;-2.20;1.40;;;-1.08;100.00;95566.65;645141;212;32421;-77
2022/03/06 07:35:51;;;;;;;2.42;2.22;;;-2.00;1.40;;;-0.82;100.00;95565.16;647217;212;31702;-77
2022/03/06 07:38:38;;;;;;;6.57;2.90;;;-1.80;1.40;;;-0.70;100.00;95563.72;648163;216;31869;-75
2022/03/06 07:41:26;;;;;;;4.68;3.28;;;-1.70;1.40;;;-0.47;100.00;95557.02;649006;216;31913;-76
2022/03/06 07:44:08;;;;;;;3.58;2.40;;;-1.50;1.40;;;-0.28;100.00;95557.84;619801;226;31919;-74
2022/03/06 07:46:50;;;;;;;4.97;2.83;;;-1.30;1.40;;;-0.03;100.00;95552.77;619756;222;31873;-76
2022/03/06 07:49:35;;;;;;;6.85;2.37;;;-1.10;1.40;;;0.09;100.00;95558.60;648135;212;32220;-75
2022/03/06 07:52:18;;;;;;;7.78;3.50;;;-1.00;1.40;;;0.08;100.00;95563.33;646808;212;31516;-77
2022/03/06 07:54:59;;;;;;;7.03;3.50;;;-1.10;1.40;;;-0.02;100.00;95565.64;649668;216;31553;-77
2022/03/06 07:57:47;;;;;;;2.55;2.35;;;-0.90;1.40;;;0.48;100.00;95559.41;646216;216;42398;-74
2022/03/06 08:00:35;;;;;;;5.30;3.37;;;-0.70;1.40;;;0.67;100.00;95557.52;645323;216;31644;-76
2022/03/06 08:03:17;;;;;;;3.08;2.45;;;-0.50;1.40;;;0.96;100.00;95562.63;650076;212;31577;-76
2022/03/06 08:05:58;;;;;;;4.37;3.25;;;-0.20;1.40;;;0.86;100.00;95562.11;621800;222;31867;-76
2022/03/06 08:08:43;;;;;;;3.58;3.12;;;-0.20;1.40;;;-0.06;100.00;95562.63;649482;216;31647;-77
2022/03/06 08:11:25;;;;;;;5.07;3.90;;;-0.50;1.40;;;0.70;100.00;95558.44;647742;216;31830;-76
2022/03/06 08:14:09;;;;;;;4.53;4.12;;;0.00;1.40;;;1.20;100.00;95560.33;649030;212;31594;-77
2022/03/06 08:16:51;;;;;;;4.43;3.30;;;0.30;1.40;;;0.82;100.00;95560.38;648186;216;31589;-78
2022/03/06 08:19:34;;;;;;;4.43;3.55;;;0.30;1.40;;;1.09;100.00;95565.18;645651;216;42492;-76
2022/03/06 08:22:15;;;;;;;3.65;3.28;;;0.40;1.40;;;1.36;100.00;95563.86;617464;226;43484;-76
2022/03/06 08:24:57;;;;;;;4.00;3.42;;;0.60;1.40;;;0.57;100.00;95565.98;647712;212;32901;-76
2022/03/06 08:27:39;;;;;;;4.00;2.87;;;0.20;1.40;;;0.64;100.00;95565.80;648008;216;42384;-76
2022/03/06 08:30:21;;;;;;;4.35;3.92;;;0.50;1.40;;;0.70;100.00;95561.44;646700;216;42193;-76
2022/03/06 08:35:54;;;;;;;4.28;3.33;;;0.10;1.40;;;0.77;100.00;95566.70;647141;216;31562;-76
2022/03/06 08:38:35;;;;;;;4.32;3.42;;;0.60;1.40;;;0.57;100.00;95565.83;620496;226;32090;-76
2022/03/06 08:41:17;;;;;;;3.92;3.62;;;0.50;1.40;;;1.01;100.00;95564.95;620618;222;32093;-76
2022/03/06 08:43:59;;;;;;;5.60;3.40;;;0.90;1.40;;;1.90;100.00;95570.48;645738;216;31657;-76
2022/03/06 08:46:41;;;;;;;3.58;2.55;;;1.60;1.40;;;1.70;96.58;95575.36;643800;220;31551;-77
2022/03/06 08:49:22;;;;;;;4.93;3.37;;;1.10;1.40;;;1.47;96.38;95571.28;646089;216;42162;-77
2022/03/06 08:52:05;;;;;;;6.75;3.50;;;1.10;1.40;;;1.48;95.49;95572.16;622648;225;32026;-77
2022/03/06 08:54:52;;;;;;;4.90;4.40;;;1.20;1.40;;;2.16;94.83;95565.61;629018;219;31866;-74
2022/03/06 08:57:39;;;;;;;4.47;4.00;;;1.90;1.40;;;2.79;92.28;95563.17;650604;216;31612;-76
2022/03/06 09:00:21;;;;;;;5.05;4.10;;;2.40;1.40;;;2.56;89.08;95563.40;651854;212;31604;-77
2022/03/06 09:03:03;;;;;;;5.15;4.22;;;1.90;1.40;;;2.47;90.48;95560.78;626082;226;31921;-76
2022/03/06 09:05:50;;;;;;;6.00;3.72;;;2.20;1.40;;;3.16;88.01;95556.48;649870;216;31611;-76
2022/03/06 09:08:34;;;;;;;5.78;3.67;;;2.90;1.40;;;4.00;85.66;95555.70;647337;216;31610;-77
2022/03/06 09:11:16;;;;;;;6.20;3.57;;;3.60;1.40;;;4.72;76.44;95560.17;620604;226;43266;-76
2022/03/06 09:14:03;;;;;;;5.12;3.60;;;6.20;1.40;;;6.67;72.39;95545.38;652756;216;31604;-74
2022/03/06 09:16:51;;;;;;;6.60;4.68;;;8.90;1.40;;;9.54;61.78;95546.82;642836;220;31570;-78
2022/03/06 09:19:39;;;;;;;6.10;4.87;;;9.90;1.40;;;9.10;50.42;95553.14;648626;216;31565;-76
2022/03/06 09:22:20;;;;;;;4.90;3.97;;;8.80;1.40;;;6.95;51.21;95564.40;621276;222;32066;-74
2022/03/06 09:27:49;;;;;;;5.87;4.28;;;5.30;1.40;;;5.35;57.27;95560.28;645686;212;31572;-74
2022/03/06 09:30:30;;;;;;;5.43;3.40;;;6.20;1.40;;;7.70;53.96;95553.05;646846;215;31626;-74
2022/03/06 09:35:51;;;;;;;6.72;4.25;;;8.40;1.40;;;10.07;50.95;95555.86;650258;212;42197;-74
2022/03/06 09:38:32;;;;;;;7.37;4.30;;;8.70;1.40;;;8.81;47.71;95558.82;648964;212;32771;-74
2022/03/06 09:41:15;;;;;;;5.60;3.55;;;8.10;1.40;;;8.72;50.32;95558.37;648942;212;31598;-75
2022/03/06 09:43:56;;;;;;;5.68;3.65;;;8.50;1.40;;;9.15;44.80;95564.41;648081;216;42851;-74
2022/03/06 09:46:38;;;;;;;5.95;4.10;;;7.10;1.40;;;10.00;44.75;95556.77;648993;216;31660;-75
2022/03/06 09:49:20;;;;;;;5.53;3.95;;;9.90;1.40;;;11.17;44.03;95556.48;649775;216;31662;-74
2022/03/06 09:54:35;;;;;;;6.05;4.12;;;8.80;1.40;;;11.43;41.24;95548.26;647895;216;31562;-75
2022/03/06 09:57:19;;;;;;;6.45;4.43;;;10.30;1.40;;;6.55;45.08;95568.22;647334;212;31560;-74
2022/03/06 10:00:02;;;;;;;6.50;4.53;;;5.30;1.40;;;5.97;49.39;95568.42;648943;216;31755;-76
2022/03/06 10:02:54;;;;;;;4.93;3.50;;;6.80;1.40;;;8.10;47.74;95563.68;618619;226;31877;-77
2022/03/06 10:05:38;;;;;;;4.95;3.72;;;8.30;1.40;;;7.65;44.95;95562.38;649335;216;31599;-74
2022/03/06 10:08:26;;;;;;;5.62;3.85;;;6.90;1.40;;;10.72;44.79;95547.77;637878;216;32244;-73
2022/03/06 10:11:15;;;;;;;5.70;3.80;;;11.00;1.40;;;12.93;38.28;95540.13;649872;216;31537;-78
2022/03/06 10:14:03;;;;;;;6.20;4.00;;;12.00;1.40;;;16.14;37.21;95535.92;647204;212;31493;-77
2022/03/06 10:16:51;;;;;;;6.57;4.20;;;13.50;1.40;;;15.78;35.39;95542.61;623246;222;31973;-77
2022/03/06 10:19:48;;;;;;;6.75;4.20;;;12.90;1.40;;;15.93;36.94;95535.89;646949;212;32001;-75
2022/03/06 10:22:30;;;;;;;5.65;4.30;;;13.10;1.40;;;18.35;33.59;95537.16;650228;212;31706;-75
2022/03/06 10:25:17;;;;;;;6.20;3.95;;;13.30;99.90;;;17.99;31.38;95541.28;651258;212;31575;-76
2022/03/06 10:27:59;;;;;;;6.45;4.18;;;12.00;99.90;;;15.30;31.79;95546.52;620076;226;32644;-77
2022/03/06 10:30:43;;;;;;;4.93;3.92;;;12.30;99.90;;;16.40;34.49;95538.44;650531;216;31597;-75
2022/03/06 10:35:58;;;;;;;8.83;5.23;;;12.90;99.90;;;13.31;30.71;95544.12;647462;212;31611;-73
2022/03/06 10:38:39;;;;;;;7.03;4.65;;;8.80;99.90;;;11.85;34.86;95544.48;651797;212;32104;-74
2022/03/06 10:41:42;;;;;;;4.68;4.22;;;10.10;99.90;;;9.25;37.20;95549.44;646586;216;31771;-75
2022/03/06 10:44:43;;;;;;;6.97;4.15;;;6.40;1.40;;;8.17;41.00;95556.20;650050;212;42273;-74
2022/03/06 10:47:24;;;;;;;7.00;5.10;;;8.90;1.40;;;9.39;36.97;95553.91;646467;216;31559;-74
2022/03/06 10:50:07;;;;;;;5.57;4.20;;;8.60;99.90;;;8.80;40.42;95550.67;647793;216;31578;-73
2022/03/06 10:52:54;;;;;;;6.20;4.30;;;7.80;1.40;;;9.56;40.88;95545.76;649952;216;31561;-77
2022/03/06 10:55:42;;;;;;;5.68;4.40;;;10.20;1.40;;;14.78;34.04;95535.99;648305;216;31508;-75
2022/03/06 10:58:30;;;;;;;5.50;4.00;;;13.10;99.90;;;18.16;31.91;95526.61;649962;212;31589;-76
2022/03/06 11:01:13;;;;;;;5.93;4.03;;;14.80;99.90;;;16.45;33.38;95530.95;646643;216;31565;-74
2022/03/06 11:04:02;;;;;;;5.53;3.87;;;13.20;99.90;;;18.57;31.06;95524.34;620403;226;43442;-75
2022/03/06 11:06:49;;;;;;;5.47;3.80;;;14.10;99.90;;;18.68;30.55;95522.23;649523;216;31707;-75
2022/03/06 11:09:31;;;;;;;6.00;4.32;;;14.90;99.90;;;17.67;27.97;95526.05;644640;216;31602;-73
2022/03/06 11:12:20;;;;;;;7.78;5.00;;;13.40;99.90;;;19.21;28.07;95518.47;621487;226;32085;-76
2022/03/06 11:15:07;;;;;;;7.05;4.95;;;11.00;99.90;;;12.00;33.92;95535.48;647516;216;32405;-74
2022/03/06 11:17:48;;;;;;;5.22;3.92;;;9.80;99.90;;;16.24;30.99;95526.09;617370;226;31973;-73
2022/03/06 11:20:32;;;;;;;5.18;4.30;;;11.70;99.90;;;12.58;31.33;95532.31;651368;212;32159;-76
2022/03/06 11:23:32;;;;;;;5.73;4.10;;;9.30;99.90;;;13.34;34.07;95528.59;649065;216;35207;-75
2022/03/06 11:26:31;;;;;;;6.43;4.45;;;10.90;99.90;;;11.59;32.98;95529.70;647792;212;31523;-75
2022/03/06 11:29:23;;;;;;;6.28;4.55;;;6.80;99.90;;;11.54;36.74;95529.77;623454;222;32182;-74
2022/03/06 11:32:07;;;;;;;5.37;3.95;;;11.10;99.90;;;15.64;31.85;95516.06;643414;215;31585;-76
2022/03/06 11:35:57;;;;;;;7.40;5.13;;;10.90;99.90;;;16.65;30.00;95515.97;650692;212;32038;-74
2022/03/06 11:38:48;;;;;;;6.20;4.80;;;14.10;99.90;;;20.06;27.26;95502.23;650199;216;31973;-76
2022/03/06 11:41:36;;;;;;;5.75;5.15;;;15.00;99.90;;;16.67;28.52;95511.14;646957;216;31595;-76
2022/03/06 11:44:32;;;;;;;8.30;5.20;;;14.00;99.90;;;20.76;26.70;95501.02;648471;212;42197;-77
2022/03/06 11:47:21;;;;;;;6.03;4.75;;;15.50;99.90;;;22.13;24.67;95500.69;649260;212;31861;-74
2022/03/06 11:50:06;;;;;;;6.87;4.75;;;14.00;99.90;;;19.27;26.39;95499.70;648215;212;31635;-74
2022/03/06 11:52:48;;;;;;;6.05;4.20;;;10.80;99.90;;;16.29;29.67;95504.80;646990;212;31972;-72
2022/03/06 11:55:31;;;;;;;7.60;4.80;;;10.80;99.90;;;17.98;28.24;95503.83;647942;216;31731;-74
2022/03/06 11:58:16;;;;;;;6.47;4.60;;;11.30;99.90;;;19.16;27.51;95489.20;643386;216;42278;-75
2022/03/06 12:00:58;;;;;;;6.40;4.37;;;13.10;99.90;;;9.20;34.85;95517.77;646558;212;32131;-74
2022/03/06 12:03:47;;;;;;;4.97;3.53;;;8.30;1.40;;;15.05;31.10;95498.23;617729;226;31914;-75
2022/03/06 12:06:29;;;;;;;5.10;4.00;;;13.30;99.90;;;17.55;28.18;95488.33;644889;212;31909;-74
2022/03/06 12:09:20;;;;;;;5.40;4.00;;;14.20;99.90;;;19.49;27.50;95481.13;649600;212;31577;-75
2022/03/06 12:12:05;;;;;;;5.43;4.20;;;14.70;63.80;;;18.53;25.78;95486.89;648585;216;31706;-75
2022/03/06 12:14:54;;;;;;;6.43;4.75;;;10.00;99.90;;;17.41;27.23;95485.34;649929;216;31606;-75
2022/03/06 12:17:36;;;;;;;5.03;4.05;;;13.20;99.90;;;18.36;26.68;95481.48;650968;216;31578;-76
2022/03/06 12:20:24;;;;;;;6.53;4.50;;;14.20;99.90;;;20.89;25.50;95480.16;644967;216;31612;-75
2022/03/06 12:23:19;;;;;;;5.72;4.90;;;15.60;99.90;;;21.48;22.65;95472.76;647524;216;31618;-76
2022/03/06 12:26:07;;;;;;;6.00;4.50;;;16.10;99.90;;;21.42;22.51;95471.08;645567;216;31702;-76
2022/03/06 12:28:55;;;;;;;5.63;4.40;;;12.90;99.90;;;18.30;25.63;95472.33;647557;212;31584;-74
2022/03/06 12:31:39;;;;;;;6.33;4.03;;;9.70;99.90;;;15.76;28.15;95477.30;647347;216;31565;-74
2022/03/06 12:35:51;;;;;;;5.82;3.80;;;10.10;99.90;;;17.92;26.60;95467.88;647664;216;31553;-74
2022/03/06 12:38:39;;;;;;;5.57;4.50;;;12.90;1.00;;;19.42;24.74;95459.03;646565;216;31660;-75
2022/03/06 12:41:22;;;;;;;6.10;4.18;;;14.70;99.90;;;17.86;26.22;95466.95;650453;216;31596;-74
2022/03/06 12:44:06;;;;;;;7.15;4.40;;;13.80;99.90;;;17.80;26.76;95464.27;648295;216;31585;-74
2022/03/06 12:46:48;;;;;;;5.65;4.10;;;10.80;99.90;;;12.89;30.92;95486.47;646463;216;42260;-74
2022/03/06 12:49:29;;;;;;;7.60;4.90;;;9.60;99.90;;;14.46;28.90;95479.27;649838;216;42440;-74
2022/03/06 12:52:11;;;;;;;5.78;4.37;;;9.60;99.90;;;14.04;29.50;95478.84;616998;225;32119;-73
2022/03/06 12:54:53;;;;;;;4.85;3.58;;;8.40;99.90;;;11.90;30.05;95490.05;650828;216;32069;-75
2022/03/06 12:57:37;;;;;;;5.80;4.10;;;7.30;99.90;;;11.81;30.18;95481.95;651330;216;31621;-74
2022/03/06 13:00:22;;;;;;;5.35;3.50;;;6.70;99.90;;;11.15;31.06;95478.55;620169;222;32076;-74
2022/03/06 13:03:02;;;;;;;5.20;3.40;;;7.40;99.90;;;10.60;32.30;95476.95;648496;212;31562;-75
2022/03/06 13:05:45;;;;;;;5.18;4.10;;;8.80;99.90;;;13.49;29.79;95472.06;620232;226;31876;-74
2022/03/06 13:08:27;;;;;;;5.60;3.70;;;11.30;99.90;;;13.36;30.11;95472.73;648609;216;31767;-76